ETD996 OERK-OMAA
Flight info
| Callsign | ETD996 |
|---|---|
| Flight time | 1h 12m |
| Altitude | 29000 |
| Route | OTALI DCT SITER M440 KUTNA Y214 RIBOT/N0490F410 M550 GOLGU DCT BOPIT M318 ATUDO |
| Aircraft | B789/H-SDE1E2E3FGHIJ2J3J4J5M1RWXY/LB1D1 |
Departure
| Time | 2026-04-27 20:13 |
|---|---|
| Airport | King Khalid International Airport (OERK) |
Arrival
| Time | 2026-04-27 21:25 |
|---|---|
| Airport | Zayed International Airport (OMAA) |
| Time | Latitude | Longitude | Altitude | Speed | Heading |
|---|---|---|---|---|---|
| 2026-04-27 19:50 | 24.96212 | 46.70292 | 2043 ft | 0 kts | 202° |
| 2026-04-27 20:00 | 24.96220 | 46.70295 | 2044 ft | 3 kts | 202° |
| 2026-04-27 20:00 | 24.96243 | 46.70307 | 2044 ft | 3 kts | 203° |
| 2026-04-27 20:00 | 24.96267 | 46.70318 | 2043 ft | 3 kts | 202° |
| 2026-04-27 20:01 | 24.96273 | 46.70320 | 2044 ft | 6 kts | 202° |
| 2026-04-27 20:03 | 24.96272 | 46.70320 | 2044 ft | 1 kts | 202° |
| 2026-04-27 20:04 | 24.96266 | 46.70321 | 2043 ft | 1 kts | 174° |
| 2026-04-27 20:04 | 24.96256 | 46.70332 | 2044 ft | 6 kts | 131° |
| 2026-04-27 20:04 | 24.96225 | 46.70403 | 2043 ft | 12 kts | 114° |
| 2026-04-27 20:04 | 24.96200 | 46.70464 | 2038 ft | 13 kts | 115° |
| 2026-04-27 20:05 | 24.96096 | 46.70548 | 2042 ft | 16 kts | 150° |
| 2026-04-27 20:05 | 24.95988 | 46.70615 | 2042 ft | 19 kts | 150° |
| 2026-04-27 20:05 | 24.95875 | 46.70689 | 2040 ft | 18 kts | 142° |
| 2026-04-27 20:05 | 24.95857 | 46.70759 | 2042 ft | 5 kts | 64° |
| 2026-04-27 20:06 | 24.95881 | 46.70810 | 2043 ft | 11 kts | 64° |
| 2026-04-27 20:06 | 24.95874 | 46.70864 | 2038 ft | 3 kts | 136° |
| 2026-04-27 20:06 | 24.95841 | 46.70885 | 2035 ft | 9 kts | 150° |
| 2026-04-27 20:06 | 24.95770 | 46.70930 | 2040 ft | 15 kts | 150° |
| 2026-04-27 20:07 | 24.95664 | 46.70998 | 2038 ft | 20 kts | 150° |
| 2026-04-27 20:07 | 24.95530 | 46.71083 | 2040 ft | 22 kts | 150° |
| 2026-04-27 20:07 | 24.95415 | 46.71159 | 2040 ft | 13 kts | 135° |
| 2026-04-27 20:07 | 24.95405 | 46.71207 | 2039 ft | 4 kts | 68° |
| 2026-04-27 20:08 | 24.95419 | 46.71241 | 2039 ft | 6 kts | 63° |
| 2026-04-27 20:08 | 24.95442 | 46.71289 | 2039 ft | 8 kts | 60° |
| 2026-04-27 20:08 | 24.95465 | 46.71349 | 2044 ft | 5 kts | 90° |
| 2026-04-27 20:08 | 24.95441 | 46.71392 | 2044 ft | 11 kts | 135° |
| 2026-04-27 20:09 | 24.95354 | 46.71451 | 2044 ft | 17 kts | 150° |
| 2026-04-27 20:09 | 24.95249 | 46.71517 | 2045 ft | 18 kts | 150° |
| 2026-04-27 20:09 | 24.95134 | 46.71589 | 2044 ft | 20 kts | 149° |
| 2026-04-27 20:09 | 24.95015 | 46.71666 | 2045 ft | 21 kts | 149° |
| 2026-04-27 20:10 | 24.94885 | 46.71748 | 2046 ft | 22 kts | 150° |
| 2026-04-27 20:10 | 24.94749 | 46.71834 | 2047 ft | 23 kts | 150° |
| 2026-04-27 20:10 | 24.94606 | 46.71923 | 2040 ft | 24 kts | 150° |
| 2026-04-27 20:10 | 24.94460 | 46.72015 | 2047 ft | 21 kts | 150° |
| 2026-04-27 20:11 | 24.94369 | 46.72071 | 2042 ft | 12 kts | 143° |
| 2026-04-27 20:11 | 24.94350 | 46.72149 | 2043 ft | 11 kts | 69° |
| 2026-04-27 20:11 | 24.94391 | 46.72227 | 2046 ft | 11 kts | 51° |
| 2026-04-27 20:11 | 24.94437 | 46.72245 | 2039 ft | 8 kts | 356° |
| 2026-04-27 20:12 | 24.94512 | 46.72209 | 2046 ft | 21 kts | 330° |
| 2026-04-27 20:12 | 24.94663 | 46.72113 | 2046 ft | 57 kts | 330° |
| 2026-04-27 20:12 | 24.95462 | 46.71608 | 2044 ft | 141 kts | 330° |
| 2026-04-27 20:12 | 24.96470 | 46.70974 | 2041 ft | 191 kts | 330° |
| 2026-04-27 20:13 | 24.97706 | 46.70189 | 2390 ft | 208 kts | 327° |
| 2026-04-27 20:13 | 24.98951 | 46.69339 | 3093 ft | 217 kts | 322° |
| 2026-04-27 20:13 | 25.00293 | 46.68442 | 3754 ft | 229 kts | 324° |
| 2026-04-27 20:13 | 25.01773 | 46.67649 | 4306 ft | 255 kts | 343° |
| 2026-04-27 20:14 | 25.03639 | 46.67428 | 4663 ft | 283 kts | 351° |
| 2026-04-27 20:14 | 25.05615 | 46.67091 | 5378 ft | 282 kts | 341° |
| 2026-04-27 20:14 | 25.07462 | 46.66419 | 6365 ft | 286 kts | 333° |
| 2026-04-27 20:14 | 25.09381 | 46.65793 | 7297 ft | 294 kts | 351° |
| 2026-04-27 20:15 | 25.11434 | 46.66017 | 8247 ft | 303 kts | 17° |
| 2026-04-27 20:15 | 25.13259 | 46.67213 | 9166 ft | 310 kts | 45° |
| 2026-04-27 20:15 | 25.14456 | 46.69179 | 10096 ft | 312 kts | 71° |
| 2026-04-27 20:15 | 25.14784 | 46.71594 | 10489 ft | 331 kts | 99° |
| 2026-04-27 20:16 | 25.14051 | 46.74050 | 10742 ft | 347 kts | 122° |
| 2026-04-27 20:16 | 25.12785 | 46.76429 | 10868 ft | 371 kts | 126° |
| 2026-04-27 20:16 | 25.11410 | 46.78745 | 11612 ft | 373 kts | 126° |
| 2026-04-27 20:16 | 25.09991 | 46.81264 | 12340 ft | 380 kts | 124° |
| 2026-04-27 20:17 | 25.08656 | 46.83762 | 12971 ft | 385 kts | 124° |
| 2026-04-27 20:17 | 25.07286 | 46.86291 | 13761 ft | 389 kts | 125° |
| 2026-04-27 20:17 | 25.05862 | 46.88849 | 14398 ft | 394 kts | 125° |
| 2026-04-27 20:17 | 25.04889 | 46.90592 | 14837 ft | 397 kts | 125° |
| 2026-04-27 20:18 | 25.02986 | 46.94044 | 15816 ft | 399 kts | 125° |
| 2026-04-27 20:18 | 25.01538 | 46.96680 | 16446 ft | 404 kts | 125° |
| 2026-04-27 20:18 | 25.00065 | 46.99342 | 17019 ft | 409 kts | 125° |
| 2026-04-27 20:18 | 24.98580 | 47.02024 | 17656 ft | 412 kts | 125° |
| 2026-04-27 20:19 | 24.97075 | 47.04746 | 18255 ft | 416 kts | 125° |
| 2026-04-27 20:19 | 24.95561 | 47.07483 | 18710 ft | 421 kts | 125° |
| 2026-04-27 20:19 | 24.94025 | 47.10255 | 19154 ft | 426 kts | 125° |
| 2026-04-27 20:19 | 24.92487 | 47.13030 | 19595 ft | 431 kts | 126° |
| 2026-04-27 20:20 | 24.90917 | 47.15863 | 20013 ft | 436 kts | 126° |
| 2026-04-27 20:20 | 24.89332 | 47.18722 | 20515 ft | 440 kts | 126° |
| 2026-04-27 20:20 | 24.87724 | 47.21619 | 20878 ft | 446 kts | 126° |
| 2026-04-27 20:20 | 24.86096 | 47.24548 | 21296 ft | 450 kts | 126° |
| 2026-04-27 20:21 | 24.84457 | 47.27497 | 21676 ft | 455 kts | 126° |
| 2026-04-27 20:21 | 24.82795 | 47.30485 | 22047 ft | 459 kts | 126° |
| 2026-04-27 20:21 | 24.81120 | 47.33496 | 22413 ft | 463 kts | 126° |
| 2026-04-27 20:21 | 24.79429 | 47.36532 | 22771 ft | 468 kts | 126° |
| 2026-04-27 20:22 | 24.78297 | 47.38565 | 23030 ft | 470 kts | 126° |
| 2026-04-27 20:22 | 24.76581 | 47.41645 | 23419 ft | 473 kts | 126° |
| 2026-04-27 20:22 | 24.74876 | 47.44707 | 24058 ft | 466 kts | 126° |
| 2026-04-27 20:22 | 24.73181 | 47.47746 | 24530 ft | 465 kts | 127° |
| 2026-04-27 20:23 | 24.71488 | 47.50773 | 24979 ft | 465 kts | 127° |
| 2026-04-27 20:23 | 24.69792 | 47.53806 | 25451 ft | 464 kts | 127° |
| 2026-04-27 20:23 | 24.68110 | 47.56816 | 25936 ft | 462 kts | 127° |
| 2026-04-27 20:23 | 24.66424 | 47.59831 | 26428 ft | 462 kts | 127° |
| 2026-04-27 20:24 | 24.64745 | 47.62829 | 26948 ft | 460 kts | 127° |
| 2026-04-27 20:24 | 24.63086 | 47.65790 | 27449 ft | 460 kts | 127° |
| 2026-04-27 20:24 | 24.61382 | 47.68818 | 27442 ft | 473 kts | 127° |
| 2026-04-27 20:24 | 24.59633 | 47.71932 | 27448 ft | 484 kts | 127° |
| 2026-04-27 20:25 | 24.57847 | 47.75123 | 27462 ft | 495 kts | 126° |
| 2026-04-27 20:25 | 24.56036 | 47.78379 | 27650 ft | 500 kts | 124° |
| 2026-04-27 20:25 | 24.54596 | 47.81887 | 27963 ft | 508 kts | 113° |
| 2026-04-27 20:25 | 24.53393 | 47.85558 | 28246 ft | 511 kts | 113° |
| 2026-04-27 20:26 | 24.52205 | 47.89238 | 28518 ft | 513 kts | 113° |
| 2026-04-27 20:26 | 24.51002 | 47.92953 | 28793 ft | 516 kts | 114° |
| 2026-04-27 20:26 | 24.49783 | 47.96670 | 29084 ft | 518 kts | 114° |
| 2026-04-27 20:26 | 24.48571 | 48.00357 | 29251 ft | 523 kts | 114° |
| 2026-04-27 20:27 | 24.47334 | 48.04144 | 29507 ft | 527 kts | 113° |
| 2026-04-27 20:27 | 24.46095 | 48.07942 | 29796 ft | 529 kts | 113° |
| 2026-04-27 20:27 | 24.44846 | 48.11752 | 30054 ft | 532 kts | 113° |
| 2026-04-27 20:27 | 24.43585 | 48.15584 | 30262 ft | 535 kts | 113° |
| 2026-04-27 20:28 | 24.42317 | 48.19442 | 30478 ft | 538 kts | 113° |
| 2026-04-27 20:28 | 24.41046 | 48.23314 | 30699 ft | 540 kts | 113° |
| 2026-04-27 20:28 | 24.39770 | 48.27194 | 30945 ft | 542 kts | 113° |
| 2026-04-27 20:28 | 24.38919 | 48.29778 | 31065 ft | 544 kts | 113° |
| 2026-04-27 20:29 | 24.37205 | 48.34972 | 31348 ft | 548 kts | 113° |
| 2026-04-27 20:29 | 24.35906 | 48.38911 | 31546 ft | 551 kts | 113° |
| 2026-04-27 20:29 | 24.34598 | 48.42872 | 31749 ft | 554 kts | 113° |
| 2026-04-27 20:29 | 24.33279 | 48.46859 | 31973 ft | 556 kts | 113° |
| 2026-04-27 20:30 | 24.31957 | 48.50852 | 32161 ft | 559 kts | 113° |
| 2026-04-27 20:30 | 24.30626 | 48.54867 | 32359 ft | 561 kts | 113° |
| 2026-04-27 20:30 | 24.29290 | 48.58893 | 32541 ft | 564 kts | 113° |
| 2026-04-27 20:30 | 24.27947 | 48.62941 | 32798 ft | 565 kts | 113° |
| 2026-04-27 20:31 | 24.26600 | 48.66994 | 33073 ft | 566 kts | 114° |
| 2026-04-27 20:31 | 24.25256 | 48.71035 | 33403 ft | 565 kts | 114° |
| 2026-04-27 20:31 | 24.23908 | 48.75082 | 33688 ft | 565 kts | 114° |
| 2026-04-27 20:31 | 24.22560 | 48.79123 | 33931 ft | 566 kts | 114° |
| 2026-04-27 20:32 | 24.21206 | 48.83182 | 34219 ft | 565 kts | 113° |
| 2026-04-27 20:32 | 24.19872 | 48.87176 | 34517 ft | 564 kts | 113° |
| 2026-04-27 20:32 | 24.18524 | 48.91196 | 34808 ft | 562 kts | 115° |
| 2026-04-27 20:32 | 24.17050 | 48.95152 | 35062 ft | 561 kts | 115° |
| 2026-04-27 20:33 | 24.15614 | 48.99137 | 35360 ft | 561 kts | 114° |
| 2026-04-27 20:33 | 24.14192 | 49.03112 | 35668 ft | 559 kts | 115° |
| 2026-04-27 20:33 | 24.12741 | 49.07055 | 35975 ft | 557 kts | 115° |
| 2026-04-27 20:33 | 24.11283 | 49.10975 | 36312 ft | 556 kts | 115° |
| 2026-04-27 20:34 | 24.09840 | 49.14914 | 36578 ft | 556 kts | 114° |
| 2026-04-27 20:34 | 24.08413 | 49.18836 | 36852 ft | 555 kts | 115° |
| 2026-04-27 20:34 | 24.06972 | 49.22761 | 37131 ft | 554 kts | 115° |
| 2026-04-27 20:34 | 24.05545 | 49.26620 | 37404 ft | 554 kts | 115° |
| 2026-04-27 20:35 | 24.04104 | 49.30527 | 37686 ft | 553 kts | 114° |
| 2026-04-27 20:35 | 24.02671 | 49.34430 | 37948 ft | 553 kts | 114° |
| 2026-04-27 20:35 | 24.01235 | 49.38329 | 38209 ft | 552 kts | 114° |
| 2026-04-27 20:35 | 23.99798 | 49.42217 | 38482 ft | 551 kts | 114° |
| 2026-04-27 20:36 | 23.98363 | 49.46096 | 38764 ft | 549 kts | 114° |
| 2026-04-27 20:36 | 23.96934 | 49.49963 | 39043 ft | 547 kts | 114° |
| 2026-04-27 20:36 | 23.95513 | 49.53808 | 39307 ft | 545 kts | 115° |
| 2026-04-27 20:36 | 23.94088 | 49.57652 | 39548 ft | 543 kts | 115° |
| 2026-04-27 20:37 | 23.92672 | 49.61468 | 39812 ft | 541 kts | 115° |
| 2026-04-27 20:37 | 23.91258 | 49.65279 | 40077 ft | 539 kts | 115° |
| 2026-04-27 20:37 | 23.89848 | 49.69076 | 40326 ft | 537 kts | 115° |
| 2026-04-27 20:37 | 23.88462 | 49.72805 | 40599 ft | 535 kts | 115° |
| 2026-04-27 20:38 | 23.87065 | 49.76557 | 40808 ft | 534 kts | 115° |
| 2026-04-27 20:38 | 23.85666 | 49.80312 | 40805 ft | 533 kts | 115° |
| 2026-04-27 20:38 | 23.82886 | 49.87771 | 40809 ft | 526 kts | 115° |
| 2026-04-27 20:39 | 23.80124 | 49.95161 | 40807 ft | 525 kts | 115° |
| 2026-04-27 20:39 | 23.77360 | 50.02550 | 40807 ft | 524 kts | 115° |
| 2026-04-27 20:40 | 23.74598 | 50.09918 | 40809 ft | 523 kts | 116° |
| 2026-04-27 20:40 | 23.71855 | 50.17228 | 40813 ft | 522 kts | 115° |
| 2026-04-27 20:41 | 23.69095 | 50.24563 | 40806 ft | 521 kts | 115° |
| 2026-04-27 20:41 | 23.66337 | 50.31885 | 40807 ft | 522 kts | 115° |
| 2026-04-27 20:42 | 23.63581 | 50.39191 | 40806 ft | 523 kts | 115° |
| 2026-04-27 20:42 | 23.60801 | 50.46545 | 40809 ft | 525 kts | 115° |
| 2026-04-27 20:43 | 23.58016 | 50.53903 | 40808 ft | 523 kts | 115° |
| 2026-04-27 20:43 | 23.55240 | 50.61223 | 40803 ft | 522 kts | 115° |
| 2026-04-27 20:44 | 23.52480 | 50.68490 | 40802 ft | 522 kts | 115° |
| 2026-04-27 20:44 | 23.49690 | 50.75821 | 40804 ft | 524 kts | 115° |
| 2026-04-27 20:45 | 23.46889 | 50.83172 | 40804 ft | 526 kts | 115° |
| 2026-04-27 20:45 | 23.44091 | 50.90504 | 40795 ft | 522 kts | 115° |
| 2026-04-27 20:46 | 23.41298 | 50.97807 | 40794 ft | 521 kts | 115° |
| 2026-04-27 20:46 | 23.38509 | 51.05090 | 40798 ft | 521 kts | 115° |
| 2026-04-27 20:47 | 23.35732 | 51.12329 | 40794 ft | 521 kts | 115° |
| 2026-04-27 20:47 | 23.32933 | 51.19613 | 40796 ft | 521 kts | 115° |
| 2026-04-27 20:48 | 23.30129 | 51.26883 | 40807 ft | 520 kts | 115° |
| 2026-04-27 20:48 | 23.27334 | 51.34125 | 40803 ft | 519 kts | 115° |
| 2026-04-27 20:49 | 23.24532 | 51.41372 | 40800 ft | 519 kts | 115° |
| 2026-04-27 20:49 | 23.22545 | 51.48929 | 40829 ft | 525 kts | 96° |
| 2026-04-27 20:50 | 23.21878 | 51.56805 | 40808 ft | 527 kts | 96° |
| 2026-04-27 20:50 | 23.21212 | 51.64748 | 40807 ft | 527 kts | 97° |
| 2026-04-27 20:51 | 23.20531 | 51.72666 | 40797 ft | 524 kts | 96° |
| 2026-04-27 20:51 | 23.19859 | 51.80541 | 40795 ft | 523 kts | 97° |
| 2026-04-27 20:52 | 23.19176 | 51.88424 | 40798 ft | 523 kts | 96° |
| 2026-04-27 20:52 | 23.18493 | 51.96303 | 40798 ft | 523 kts | 97° |
| 2026-04-27 20:53 | 23.17804 | 52.04185 | 40804 ft | 523 kts | 97° |
| 2026-04-27 20:53 | 23.17115 | 52.12025 | 40807 ft | 525 kts | 97° |
| 2026-04-27 20:54 | 23.16063 | 52.23912 | 40809 ft | 527 kts | 97° |
| 2026-04-27 20:55 | 23.15357 | 52.31839 | 40802 ft | 526 kts | 97° |
| 2026-04-27 20:55 | 23.14918 | 52.39709 | 40827 ft | 524 kts | 84° |
| 2026-04-27 20:55 | 23.15517 | 52.43621 | 40827 ft | 525 kts | 73° |
| 2026-04-27 20:56 | 23.16647 | 52.47396 | 40813 ft | 526 kts | 70° |
| 2026-04-27 20:56 | 23.19537 | 52.54670 | 40827 ft | 523 kts | 58° |
| 2026-04-27 20:57 | 23.23229 | 52.61524 | 40812 ft | 526 kts | 58° |
| 2026-04-27 20:57 | 23.26867 | 52.68371 | 40810 ft | 526 kts | 58° |
| 2026-04-27 20:58 | 23.30539 | 52.75252 | 40811 ft | 526 kts | 58° |
| 2026-04-27 20:58 | 23.34204 | 52.82146 | 40811 ft | 526 kts | 58° |
| 2026-04-27 20:59 | 23.37868 | 52.89041 | 40815 ft | 526 kts | 58° |
| 2026-04-27 20:59 | 23.41530 | 52.95943 | 40816 ft | 526 kts | 58° |
| 2026-04-27 21:00 | 23.45188 | 53.02848 | 40819 ft | 526 kts | 58° |
| 2026-04-27 21:00 | 23.48847 | 53.09762 | 40819 ft | 527 kts | 58° |
| 2026-04-27 21:01 | 23.52503 | 53.16683 | 40813 ft | 527 kts | 58° |
| 2026-04-27 21:01 | 23.56130 | 53.23556 | 40810 ft | 526 kts | 58° |
| 2026-04-27 21:02 | 23.59767 | 53.30459 | 40815 ft | 524 kts | 58° |
| 2026-04-27 21:02 | 23.63397 | 53.37358 | 40814 ft | 523 kts | 58° |
| 2026-04-27 21:03 | 23.67017 | 53.44250 | 40143 ft | 524 kts | 58° |
| 2026-04-27 21:03 | 23.68839 | 53.47720 | 39480 ft | 525 kts | 58° |
| 2026-04-27 21:03 | 23.70649 | 53.51173 | 38784 ft | 526 kts | 58° |
| 2026-04-27 21:03 | 23.72472 | 53.54649 | 38015 ft | 527 kts | 57° |
| 2026-04-27 21:04 | 23.74287 | 53.58113 | 37279 ft | 526 kts | 57° |
| 2026-04-27 21:04 | 23.76108 | 53.61594 | 36523 ft | 527 kts | 57° |
| 2026-04-27 21:04 | 23.77903 | 53.65025 | 35746 ft | 529 kts | 57° |
| 2026-04-27 21:04 | 23.79729 | 53.68517 | 34933 ft | 532 kts | 57° |
| 2026-04-27 21:05 | 23.81566 | 53.72035 | 34074 ft | 536 kts | 57° |
| 2026-04-27 21:05 | 23.83427 | 53.75599 | 33110 ft | 540 kts | 57° |
| 2026-04-27 21:05 | 23.85286 | 53.79163 | 32168 ft | 541 kts | 57° |
| 2026-04-27 21:05 | 23.87154 | 53.82748 | 31169 ft | 543 kts | 57° |
| 2026-04-27 21:06 | 23.89023 | 53.86337 | 30134 ft | 545 kts | 58° |
| 2026-04-27 21:06 | 23.90906 | 53.89957 | 29019 ft | 545 kts | 58° |
| 2026-04-27 21:06 | 23.92774 | 53.93552 | 27983 ft | 543 kts | 58° |
| 2026-04-27 21:06 | 23.94634 | 53.97132 | 26961 ft | 540 kts | 58° |
| 2026-04-27 21:07 | 23.96486 | 54.00697 | 25944 ft | 536 kts | 58° |
| 2026-04-27 21:07 | 23.98320 | 54.04231 | 24949 ft | 533 kts | 58° |
| 2026-04-27 21:07 | 24.00146 | 54.07752 | 23940 ft | 530 kts | 58° |
| 2026-04-27 21:07 | 24.01956 | 54.11249 | 22907 ft | 527 kts | 59° |
| 2026-04-27 21:08 | 24.03743 | 54.14711 | 21940 ft | 518 kts | 59° |
| 2026-04-27 21:08 | 24.04917 | 54.16984 | 21303 ft | 513 kts | 59° |
| 2026-04-27 21:08 | 24.07218 | 54.21439 | 20057 ft | 503 kts | 59° |
| 2026-04-27 21:08 | 24.08925 | 54.24746 | 19135 ft | 495 kts | 59° |
| 2026-04-27 21:09 | 24.10040 | 54.26907 | 18533 ft | 490 kts | 59° |
| 2026-04-27 21:09 | 24.11707 | 54.30141 | 17596 ft | 482 kts | 59° |
| 2026-04-27 21:09 | 24.13337 | 54.33306 | 16718 ft | 472 kts | 59° |
| 2026-04-27 21:09 | 24.14937 | 54.36416 | 15939 ft | 462 kts | 59° |
| 2026-04-27 21:10 | 24.16485 | 54.39424 | 15243 ft | 449 kts | 59° |
| 2026-04-27 21:10 | 24.18004 | 54.42379 | 14427 ft | 441 kts | 60° |
| 2026-04-27 21:10 | 24.19499 | 54.45287 | 13640 ft | 434 kts | 60° |
| 2026-04-27 21:10 | 24.20956 | 54.48129 | 13001 ft | 414 kts | 60° |
| 2026-04-27 21:11 | 24.22301 | 54.50754 | 12762 ft | 374 kts | 59° |
| 2026-04-27 21:11 | 24.23525 | 54.53106 | 12617 ft | 338 kts | 56° |
| 2026-04-27 21:11 | 24.24983 | 54.54908 | 12521 ft | 297 kts | 36° |
| 2026-04-27 21:11 | 24.26621 | 54.56152 | 12417 ft | 284 kts | 31° |
| 2026-04-27 21:12 | 24.28287 | 54.57364 | 12128 ft | 297 kts | 30° |
| 2026-04-27 21:12 | 24.30085 | 54.58423 | 11996 ft | 291 kts | 25° |
| 2026-04-27 21:12 | 24.31852 | 54.59517 | 11673 ft | 290 kts | 27° |
| 2026-04-27 21:12 | 24.33581 | 54.60609 | 11321 ft | 282 kts | 26° |
| 2026-04-27 21:13 | 24.35291 | 54.61646 | 10960 ft | 279 kts | 25° |
| 2026-04-27 21:13 | 24.36984 | 54.62658 | 10601 ft | 275 kts | 25° |
| 2026-04-27 21:13 | 24.38653 | 54.63667 | 10245 ft | 272 kts | 26° |
| 2026-04-27 21:13 | 24.40306 | 54.64672 | 9891 ft | 270 kts | 26° |
| 2026-04-27 21:14 | 24.41928 | 54.65658 | 9529 ft | 267 kts | 25° |
| 2026-04-27 21:14 | 24.43551 | 54.66642 | 9168 ft | 266 kts | 25° |
| 2026-04-27 21:14 | 24.45167 | 54.67621 | 8823 ft | 265 kts | 25° |
| 2026-04-27 21:14 | 24.46785 | 54.68603 | 8477 ft | 265 kts | 25° |
| 2026-04-27 21:15 | 24.48296 | 54.69752 | 8103 ft | 269 kts | 43° |
| 2026-04-27 21:15 | 24.49259 | 54.71520 | 7754 ft | 275 kts | 69° |
| 2026-04-27 21:15 | 24.49429 | 54.73610 | 7410 ft | 280 kts | 96° |
| 2026-04-27 21:15 | 24.48730 | 54.75593 | 7059 ft | 281 kts | 123° |
| 2026-04-27 21:16 | 24.47543 | 54.77316 | 6693 ft | 283 kts | 128° |
| 2026-04-27 21:16 | 24.46320 | 54.78995 | 6325 ft | 281 kts | 129° |
| 2026-04-27 21:16 | 24.45104 | 54.80678 | 5943 ft | 281 kts | 128° |
| 2026-04-27 21:16 | 24.43908 | 54.82367 | 5580 ft | 279 kts | 128° |
| 2026-04-27 21:17 | 24.42737 | 54.84021 | 5213 ft | 277 kts | 128° |
| 2026-04-27 21:17 | 24.41548 | 54.85691 | 4863 ft | 276 kts | 128° |
| 2026-04-27 21:17 | 24.40368 | 54.87345 | 4499 ft | 274 kts | 127° |
| 2026-04-27 21:17 | 24.39196 | 54.88989 | 4127 ft | 273 kts | 127° |
| 2026-04-27 21:18 | 24.37938 | 54.90541 | 3764 ft | 273 kts | 142° |
| 2026-04-27 21:18 | 24.36218 | 54.91357 | 3395 ft | 270 kts | 172° |
| 2026-04-27 21:18 | 24.34382 | 54.91218 | 3043 ft | 263 kts | 200° |
| 2026-04-27 21:18 | 24.32840 | 54.90208 | 2702 ft | 256 kts | 228° |
| 2026-04-27 21:19 | 24.31769 | 54.88691 | 2371 ft | 248 kts | 242° |
| 2026-04-27 21:19 | 24.31283 | 54.86946 | 2033 ft | 231 kts | 270° |
| 2026-04-27 21:19 | 24.31473 | 54.85365 | 1967 ft | 189 kts | 291° |
| 2026-04-27 21:20 | 24.32740 | 54.83265 | 1981 ft | 153 kts | 309° |
| 2026-04-27 21:20 | 24.33396 | 54.82330 | 1981 ft | 155 kts | 310° |
| 2026-04-27 21:20 | 24.34053 | 54.81404 | 1981 ft | 153 kts | 310° |
| 2026-04-27 21:20 | 24.34703 | 54.80485 | 1982 ft | 153 kts | 310° |
| 2026-04-27 21:21 | 24.35355 | 54.79564 | 1989 ft | 153 kts | 310° |
| 2026-04-27 21:21 | 24.36008 | 54.78641 | 1982 ft | 153 kts | 310° |
| 2026-04-27 21:21 | 24.36664 | 54.77715 | 1982 ft | 154 kts | 310° |
| 2026-04-27 21:21 | 24.37306 | 54.76806 | 1977 ft | 144 kts | 310° |
| 2026-04-27 21:22 | 24.37901 | 54.75964 | 1966 ft | 139 kts | 310° |
| 2026-04-27 21:22 | 24.38495 | 54.75124 | 1788 ft | 136 kts | 310° |
| 2026-04-27 21:22 | 24.39070 | 54.74316 | 1632 ft | 134 kts | 311° |
| 2026-04-27 21:22 | 24.39638 | 54.73517 | 1466 ft | 132 kts | 309° |
| 2026-04-27 21:23 | 24.40203 | 54.72716 | 1291 ft | 135 kts | 309° |
| 2026-04-27 21:23 | 24.40787 | 54.71893 | 1122 ft | 137 kts | 309° |
| 2026-04-27 21:23 | 24.41372 | 54.71076 | 954 ft | 135 kts | 308° |
| 2026-04-27 21:23 | 24.41937 | 54.70260 | 798 ft | 139 kts | 307° |
| 2026-04-27 21:24 | 24.42550 | 54.69409 | 625 ft | 141 kts | 307° |
| 2026-04-27 21:24 | 24.43150 | 54.68568 | 467 ft | 142 kts | 306° |
| 2026-04-27 21:24 | 24.43765 | 54.67704 | 317 ft | 144 kts | 304° |
| 2026-04-27 21:24 | 24.44368 | 54.66845 | 111 ft | 139 kts | 305° |
| 2026-04-27 21:25 | 24.44894 | 54.66099 | 86 ft | 97 kts | 308° |
| 2026-04-27 21:25 | 24.45182 | 54.65695 | 88 ft | 41 kts | 308° |
| 2026-04-27 21:25 | 24.45330 | 54.65484 | 86 ft | 33 kts | 304° |
| 2026-04-27 21:25 | 24.45415 | 54.65262 | 81 ft | 28 kts | 280° |
| 2026-04-27 21:26 | 24.45432 | 54.65114 | 81 ft | 0 kts | 276° |
| 2026-04-27 21:26 | 24.45434 | 54.65094 | 85 ft | 5 kts | 276° |
| 2026-04-27 21:26 | 24.45442 | 54.65044 | 82 ft | 6 kts | 287° |
| 2026-04-27 21:26 | 24.45449 | 54.65023 | 85 ft | 0 kts | 292° |
| 2026-04-27 21:29 | 24.45451 | 54.65020 | 84 ft | 2 kts | 292° |
| 2026-04-27 21:29 | 24.45469 | 54.64985 | 84 ft | 10 kts | 298° |
| 2026-04-27 21:29 | 24.45449 | 54.64911 | 86 ft | 10 kts | 209° |
| 2026-04-27 21:30 | 24.45408 | 54.64913 | 84 ft | 2 kts | 143° |
| 2026-04-27 21:30 | 24.45369 | 54.64965 | 86 ft | 14 kts | 128° |
| 2026-04-27 21:30 | 24.45299 | 54.65063 | 85 ft | 19 kts | 127° |
| 2026-04-27 21:30 | 24.45216 | 54.65180 | 86 ft | 15 kts | 127° |
| 2026-04-27 21:31 | 24.45151 | 54.65229 | 86 ft | 10 kts | 184° |
| 2026-04-27 21:31 | 24.45077 | 54.65178 | 87 ft | 17 kts | 219° |
| 2026-04-27 21:31 | 24.44961 | 54.65078 | 87 ft | 25 kts | 218° |
| 2026-04-27 21:31 | 24.44819 | 54.64961 | 85 ft | 19 kts | 217° |
| 2026-04-27 21:32 | 24.44781 | 54.64908 | 86 ft | 1 kts | 272° |
| 2026-04-27 21:32 | 24.44783 | 54.64904 | 85 ft | 1 kts | 296° |
| 2026-04-27 21:32 | 24.44791 | 54.64900 | 87 ft | 1 kts | 340° |
| 2026-04-27 21:32 | 24.44832 | 54.64896 | 85 ft | 13 kts | 354° |
| 2026-04-27 21:33 | 24.44898 | 54.64888 | 84 ft | 6 kts | 353° |
| 2026-04-27 21:33 | 24.44913 | 54.64886 | 85 ft | 1 kts | 353° |
| 2026-04-27 21:33 | 24.44919 | 54.64885 | 87 ft | 0 kts | 353° |
| 2026-04-27 21:33 | 24.44920 | 54.64885 | 87 ft | 0 kts | 353° |